Time;durP1;ratioP1;P1;durP2;ratioP2;P2;SDS_P1;SDS_P2;PMS_P1;PMS_P2;Temp;Humidity;BMP_temperature;BMP_pressure;BME280_temperature;BME280_humidity;BME280_pressure;Samples;Min_cycle;Max_cycle;Signal;HPM_P1;HPM_P2
2021/07/24 00:00:49;;;;;;;8.95;4.15;;;;;;;25.61;39.90;100682.78;4433216;32;20113;-75
2021/07/24 00:03:15;;;;;;;4.90;3.40;;;;;;;25.57;39.89;100679.41;4432659;32;20112;-75
2021/07/24 00:05:40;;;;;;;4.22;3.03;;;;;;;25.71;39.63;100678.94;4434572;32;20175;-75
2021/07/24 00:08:06;;;;;;;7.12;3.25;;;;;;;25.60;39.87;100675.44;4435425;32;20022;-75
2021/07/24 00:10:33;;;;;;;6.32;2.95;;;;;;;25.80;39.52;100672.78;4433017;32;20106;-74
2021/07/24 00:12:58;;;;;;;6.10;3.12;;;;;;;25.75;39.57;100673.66;4431654;32;20504;-74
2021/07/24 00:15:24;;;;;;;6.45;3.00;;;;;;;25.82;39.68;100670.16;4436347;32;20051;-73
2021/07/24 00:17:50;;;;;;;4.15;2.70;;;;;;;25.59;40.03;100665.25;4434605;32;20106;-73
2021/07/24 00:20:15;;;;;;;4.80;2.60;;;;;;;25.74;39.69;100663.44;4435664;32;20083;-74
2021/07/24 00:22:41;;;;;;;7.15;2.80;;;;;;;25.71;39.72;100655.13;4433190;32;20081;-74
2021/07/24 00:25:07;;;;;;;8.57;3.12;;;;;;;25.60;39.82;100644.53;4437390;32;20429;-74
2021/07/24 00:27:33;;;;;;;6.68;3.35;;;;;;;25.80;39.64;100646.09;4436793;32;20096;-74
2021/07/24 00:29:58;;;;;;;8.73;3.30;;;;;;;25.84;39.64;100632.12;4432674;32;20033;-73
2021/07/24 00:32:26;;;;;;;4.75;2.90;;;;;;;25.69;39.62;100635.50;4432821;32;20425;-74
2021/07/24 00:34:53;;;;;;;6.90;3.08;;;;;;;25.84;39.39;100627.16;4432909;32;20053;-74
2021/07/24 00:37:20;;;;;;;3.95;2.55;;;;;;;25.77;39.48;100621.22;4435862;32;20084;-74
2021/07/24 00:39:47;;;;;;;6.55;2.97;;;;;;;25.85;39.12;100614.28;4432240;32;20358;-74
2021/07/24 00:42:19;;;;;;;7.00;2.70;;;;;;;25.91;38.95;100612.09;4436181;32;20061;-74
2021/07/24 00:44:47;;;;;;;5.35;2.80;;;;;;;25.95;39.05;100611.78;4432043;32;20038;-74
2021/07/24 00:47:19;;;;;;;5.32;2.97;;;;;;;25.76;39.67;100600.25;4433663;32;20034;-74
2021/07/24 00:49:46;;;;;;;4.68;3.03;;;;;;;25.96;39.34;100602.59;4422635;32;20060;-73
2021/07/24 00:52:12;;;;;;;5.57;3.33;;;;;;;25.94;39.53;100598.66;4423476;32;20072;-73
2021/07/24 00:54:39;;;;;;;4.75;2.90;;;;;;;25.92;39.70;100590.56;4422337;32;20041;-73
2021/07/24 00:57:06;;;;;;;5.55;3.35;;;;;;;25.77;39.76;100587.41;4425997;32;20544;-74
2021/07/24 00:59:34;;;;;;;5.32;2.90;;;;;;;25.93;39.63;100579.81;4423285;32;20061;-73
2021/07/24 01:02:01;;;;;;;6.53;3.40;;;;;;;26.01;39.54;100566.37;4424743;32;20037;-73
2021/07/24 01:04:27;;;;;;;7.00;2.92;;;;;;;25.86;39.78;100557.41;4422611;32;20327;-73
2021/07/24 01:06:54;;;;;;;5.15;3.15;;;;;;;25.86;39.65;100549.50;4424848;32;20041;-73
2021/07/24 01:09:20;;;;;;;6.60;3.10;;;;;;;25.91;39.49;100547.88;4423230;32;20117;-73
2021/07/24 01:11:46;;;;;;;6.65;3.17;;;;;;;25.87;39.50;100538.78;4422872;32;20120;-73
2021/07/24 01:14:12;;;;;;;7.22;3.40;;;;;;;25.81;39.68;100532.31;4422798;32;20496;-73
2021/07/24 01:16:38;;;;;;;5.85;3.45;;;;;;;25.61;39.89;100524.28;4423155;32;20412;-73
2021/07/24 01:19:04;;;;;;;7.70;3.70;;;;;;;25.75;39.51;100514.34;4424178;32;20099;-73
2021/07/24 01:21:30;;;;;;;5.65;3.33;;;;;;;25.69;39.61;100525.97;4419211;32;20095;-73
2021/07/24 01:23:57;;;;;;;9.02;3.25;;;;;;;25.68;39.67;100517.88;4424837;32;20038;-73
2021/07/24 01:26:25;;;;;;;7.95;3.40;;;;;;;25.63;39.62;100516.62;4426092;32;20100;-73
2021/07/24 01:28:51;;;;;;;4.15;3.05;;;;;;;25.84;39.28;100508.94;4423381;32;20097;-73
2021/07/24 01:31:17;;;;;;;7.55;2.87;;;;;;;25.66;39.34;100506.88;4423562;32;20090;-73
2021/07/24 01:33:43;;;;;;;4.93;2.83;;;;;;;25.61;39.52;100498.34;4422343;32;20065;-73
2021/07/24 01:36:08;;;;;;;5.10;2.67;;;;;;;25.59;39.48;100492.34;4423646;32;21171;-73
2021/07/24 01:38:39;;;;;;;5.53;3.28;;;;;;;25.51;39.59;100488.53;4424638;32;20076;-73
2021/07/24 01:41:07;;;;;;;6.35;2.97;;;;;;;25.64;39.47;100477.06;4423014;32;20462;-73
2021/07/24 01:43:32;;;;;;;7.53;3.67;;;;;;;25.54;39.57;100470.94;4423903;32;20042;-73
2021/07/24 01:45:58;;;;;;;5.70;3.42;;;;;;;25.42;39.72;100469.56;4424178;32;20170;-73
2021/07/24 01:48:43;;;;;;;4.65;3.30;;;;;;;25.49;39.51;100468.91;4421481;32;20099;-73
2021/07/24 01:53:57;;;;;;;;;;;;;;;25.56;39.27;100465.41;4424306;32;20045;-73
2021/07/24 01:56:28;;;;;;;5.80;3.53;;;;;;;25.91;38.87;100470.00;4423421;32;20017;-73
2021/07/24 01:58:54;;;;;;;5.22;3.95;;;;;;;25.75;38.87;100459.56;4424524;32;20030;-73
2021/07/24 02:01:21;;;;;;;5.85;3.20;;;;;;;25.46;39.36;100446.19;4424054;32;20052;-73
2021/07/24 02:03:53;;;;;;;5.65;3.72;;;;;;;25.53;39.00;100445.53;4421496;32;20175;-73
2021/07/24 02:06:19;;;;;;;6.25;3.10;;;;;;;25.70;38.78;100448.91;4424176;32;20025;-73
2021/07/24 02:08:50;;;;;;;4.78;3.20;;;;;;;25.48;39.10;100452.94;4421964;32;20050;-73
2021/07/24 02:11:19;;;;;;;7.22;3.42;;;;;;;25.60;38.92;100453.53;4421506;32;20460;-73
2021/07/24 02:13:47;;;;;;;7.00;3.80;;;;;;;25.37;39.40;100442.38;4422296;32;20430;-74
2021/07/24 02:16:14;;;;;;;6.18;3.60;;;;;;;25.30;39.55;100443.00;4422516;32;20098;-74
2021/07/24 02:18:41;;;;;;;5.78;3.53;;;;;;;25.12;39.75;100437.25;4425380;32;20388;-74
2021/07/24 02:21:08;;;;;;;5.18;3.30;;;;;;;25.23;39.55;100432.12;4419109;32;20621;-73
2021/07/24 02:23:34;;;;;;;4.93;3.55;;;;;;;25.14;39.72;100444.03;4421698;32;20075;-74
2021/07/24 02:26:00;;;;;;;6.47;2.90;;;;;;;25.20;39.59;100438.19;4424072;32;20434;-73
2021/07/24 02:28:25;;;;;;;8.07;3.80;;;;;;;25.06;39.49;100437.34;4408862;32;20073;-73
2021/07/24 02:30:52;;;;;;;5.18;3.37;;;;;;;25.17;39.39;100427.75;4423880;32;20130;-73
2021/07/24 02:33:18;;;;;;;8.23;3.55;;;;;;;25.30;39.15;100422.84;4420833;32;20426;-73
2021/07/24 02:35:44;;;;;;;6.22;3.53;;;;;;;24.96;39.51;100413.16;4424376;32;20139;-73
2021/07/24 02:38:09;;;;;;;5.30;3.25;;;;;;;24.94;39.38;100412.12;4421186;32;20046;-73
2021/07/24 02:40:36;;;;;;;7.12;3.12;;;;;;;24.68;39.84;100412.78;4424130;32;20426;-74
2021/07/24 02:43:02;;;;;;;5.20;3.55;;;;;;;24.73;39.77;100409.03;4423722;32;20413;-73
2021/07/24 02:45:28;;;;;;;4.95;3.22;;;;;;;24.94;39.43;100407.16;4420343;32;20022;-73
2021/07/24 02:47:54;;;;;;;5.57;3.30;;;;;;;25.05;39.36;100404.13;4409076;32;20072;-74
2021/07/24 02:50:19;;;;;;;7.07;3.50;;;;;;;25.09;39.32;100407.47;4421706;32;20872;-73
2021/07/24 02:52:45;;;;;;;6.30;3.47;;;;;;;25.01;39.44;100408.66;4421946;32;20535;-73
2021/07/24 02:55:11;;;;;;;5.78;3.17;;;;;;;24.98;39.42;100401.88;4420160;32;20373;-73
2021/07/24 02:57:37;;;;;;;6.93;3.15;;;;;;;25.12;39.37;100397.72;4420333;32;20081;-73
2021/07/24 03:00:05;;;;;;;5.82;3.53;;;;;;;25.07;39.45;100397.81;4420551;32;20042;-74
2021/07/24 03:02:30;;;;;;;5.47;3.15;;;;;;;25.10;39.43;100388.84;4420873;32;20048;-73
2021/07/24 03:04:56;;;;;;;5.72;3.33;;;;;;;24.84;39.84;100380.13;4419953;32;20042;-73
2021/07/24 03:07:22;;;;;;;6.15;3.45;;;;;;;24.95;39.83;100370.53;4421380;32;20041;-74
2021/07/24 03:09:48;;;;;;;5.20;3.97;;;;;;;24.97;39.74;100365.78;4420612;32;20765;-73
2021/07/24 03:12:17;;;;;;;10.82;4.50;;;;;;;25.04;39.67;100356.50;4417834;32;20478;-73
2021/07/24 03:14:43;;;;;;;10.23;5.53;;;;;;;24.79;40.18;100349.31;4422635;32;20077;-74
2021/07/24 03:17:09;;;;;;;16.92;7.78;;;;;;;25.07;39.84;100357.50;4420674;32;20029;-74
2021/07/24 03:19:35;;;;;;;11.18;6.80;;;;;;;24.79;40.42;100351.41;4422780;32;20167;-73
2021/07/24 03:22:00;;;;;;;11.95;7.75;;;;;;;24.96;40.17;100355.59;4422082;32;20026;-73
2021/07/24 03:24:26;;;;;;;15.50;8.38;;;;;;;25.08;40.09;100356.97;4417220;32;20156;-73
2021/07/24 03:26:51;;;;;;;14.23;10.00;;;;;;;25.11;40.13;100355.87;4424168;32;20124;-73
2021/07/24 03:29:17;;;;;;;16.60;11.68;;;;;;;25.02;40.38;100356.28;4419902;32;20071;-74
2021/07/24 03:31:43;;;;;;;19.62;12.63;;;;;;;24.92;40.60;100358.03;4418773;32;20037;-73
2021/07/24 03:34:08;;;;;;;20.58;12.32;;;;;;;24.90;40.74;100357.00;4420389;32;20095;-73
2021/07/24 03:36:34;;;;;;;18.90;11.73;;;;;;;25.00;40.60;100347.41;4423393;32;20026;-73
2021/07/24 03:39:00;;;;;;;21.60;12.50;;;;;;;24.80;41.19;100332.81;4420812;32;20038;-74
2021/07/24 03:41:25;;;;;;;20.35;11.98;;;;;;;24.85;40.95;100334.84;4424393;32;20445;-74
2021/07/24 03:43:52;;;;;;;18.12;13.15;;;;;;;24.80;40.97;100332.81;4420498;32;20072;-73
2021/07/24 03:46:21;;;;;;;17.85;12.37;;;;;;;24.96;40.70;100329.69;4420652;32;20111;-73
2021/07/24 03:48:47;;;;;;;16.12;12.15;;;;;;;25.00;40.61;100320.69;4419745;32;20034;-74
2021/07/24 03:51:14;;;;;;;18.67;13.52;;;;;;;24.72;41.10;100312.53;4419219;32;20521;-73
2021/07/24 03:53:40;;;;;;;16.65;12.55;;;;;;;24.65;41.40;100315.25;4419097;32;20057;-74
2021/07/24 03:56:13;;;;;;;21.27;13.07;;;;;;;24.46;41.61;100318.13;4420503;32;20389;-73
2021/07/24 03:58:38;;;;;;;16.08;10.02;;;;;;;24.47;41.61;100313.94;4422507;32;20320;-74
2021/07/24 04:01:06;;;;;;;12.68;8.38;;;;;;;24.53;41.16;100331.87;4420282;32;20404;-73
2021/07/24 04:03:32;;;;;;;12.88;8.05;;;;;;;24.62;41.07;100336.47;4419109;32;20397;-74
2021/07/24 04:05:57;;;;;;;8.93;6.05;;;;;;;24.39;41.40;100341.75;4422561;32;20073;-73
2021/07/24 04:08:24;;;;;;;11.43;6.18;;;;;;;24.48;41.09;100337.72;4421088;32;20026;-74
2021/07/24 04:10:50;;;;;;;10.68;6.53;;;;;;;24.28;41.51;100349.75;4422543;32;20103;-73
2021/07/24 04:13:16;;;;;;;10.93;6.03;;;;;;;24.34;41.35;100351.25;4423543;32;20029;-74
2021/07/24 04:15:42;;;;;;;11.65;6.10;;;;;;;24.55;41.03;100343.62;4421360;32;20151;-74
2021/07/24 04:18:08;;;;;;;8.20;5.00;;;;;;;24.83;40.61;100346.91;4420235;32;20041;-73
2021/07/24 04:20:37;;;;;;;7.80;5.53;;;;;;;24.66;40.53;100345.59;4420242;32;20116;-73
2021/07/24 04:23:02;;;;;;;8.13;4.60;;;;;;;24.70;40.39;100334.56;4421575;32;20120;-73
2021/07/24 04:25:28;;;;;;;10.10;5.10;;;;;;;24.53;40.55;100346.28;4423821;32;20066;-73
2021/07/24 04:27:54;;;;;;;11.40;5.45;;;;;;;24.57;40.50;100346.72;4424653;32;20034;-73
2021/07/24 04:30:20;;;;;;;6.43;5.00;;;;;;;24.39;40.88;100359.00;4422648;32;20307;-73
2021/07/24 04:32:46;;;;;;;9.07;5.60;;;;;;;24.48;40.56;100350.00;4426265;32;20440;-73
2021/07/24 04:35:11;;;;;;;10.77;5.40;;;;;;;24.53;40.52;100362.75;4423489;32;20057;-74
2021/07/24 04:37:37;;;;;;;11.45;6.20;;;;;;;24.48;40.57;100363.63;4425415;32;20068;-74
2021/07/24 04:40:04;;;;;;;8.50;5.90;;;;;;;24.39;40.98;100367.62;4423923;32;20540;-73
2021/07/24 04:42:31;;;;;;;9.95;4.85;;;;;;;24.75;40.59;100363.25;4410774;32;20534;-73
2021/07/24 04:44:57;;;;;;;8.02;4.95;;;;;;;24.61;40.99;100367.31;4424822;32;20081;-74
2021/07/24 04:47:23;;;;;;;8.35;4.75;;;;;;;24.43;41.38;100382.50;4425517;32;20119;-74
2021/07/24 04:49:51;;;;;;;7.78;4.50;;;;;;;24.43;41.33;100385.38;4419974;32;20130;-74
2021/07/24 04:52:18;;;;;;;7.18;4.00;;;;;;;24.29;41.67;100397.31;4425248;32;20048;-74
2021/07/24 04:54:46;;;;;;;7.03;3.80;;;;;;;24.14;41.79;100399.87;4422066;32;20034;-73
2021/07/24 04:57:13;;;;;;;7.20;3.70;;;;;;;24.39;41.32;100399.28;4426811;32;20370;-73
2021/07/24 04:59:46;;;;;;;11.02;3.72;;;;;;;24.32;41.29;100394.16;4424115;32;20050;-73
2021/07/24 05:04:50;;;;;;;6.60;3.70;;;;;;;24.71;40.87;100411.72;3983176;32;15023182;-74
2021/07/24 05:07:17;;;;;;;10.00;3.20;;;;;;;24.71;40.87;100411.72;4438329;32;20041;-74
2021/07/24 05:09:44;;;;;;;6.35;3.97;;;;;;;24.48;41.32;100409.66;4438534;32;20444;-72
2021/07/24 05:12:09;;;;;;;8.73;3.40;;;;;;;24.66;40.93;100406.00;4442297;32;20076;-73
2021/07/24 05:14:35;;;;;;;5.15;3.33;;;;;;;24.61;40.96;100395.34;4440279;32;20547;-75
2021/07/24 05:17:10;;;;;;;6.93;3.75;;;;;;;24.86;40.60;100402.59;4439783;32;20067;-72
2021/07/24 05:19:38;;;;;;;8.95;3.42;;;;;;;24.98;40.48;100403.97;4437107;32;20167;-75
2021/07/24 05:22:05;;;;;;;4.43;3.33;;;;;;;24.94;40.68;100403.50;4438247;32;20420;-73
2021/07/24 05:24:32;;;;;;;8.05;3.70;;;;;;;24.97;40.50;100402.41;4437243;32;20534;-73
2021/07/24 05:27:01;;;;;;;8.10;3.60;;;;;;;24.91;40.71;100396.00;4438991;32;20105;-73
2021/07/24 05:29:27;;;;;;;5.00;3.05;;;;;;;24.50;41.50;100407.00;4441038;32;20136;-73
2021/07/24 05:31:52;;;;;;;7.53;4.25;;;;;;;24.54;41.31;100411.13;4440038;32;20120;-73
2021/07/24 05:34:18;;;;;;;8.05;3.72;;;;;;;24.78;40.96;100395.91;4439211;32;20100;-73
2021/07/24 05:36:44;;;;;;;5.53;3.08;;;;;;;24.75;41.05;100400.66;4439244;32;20055;-73
2021/07/24 05:39:10;;;;;;;6.57;3.37;;;;;;;24.77;40.89;100406.66;4440813;32;20038;-75
2021/07/24 05:41:36;;;;;;;4.70;3.12;;;;;;;24.65;41.09;100404.47;4438050;32;20030;-73
2021/07/24 05:44:02;;;;;;;7.10;3.78;;;;;;;24.84;40.75;100402.34;4440258;32;20077;-73
2021/07/24 05:46:28;;;;;;;8.95;3.92;;;;;;;24.88;40.70;100397.84;4438256;32;20052;-73
2021/07/24 05:48:53;;;;;;;4.93;3.42;;;;;;;24.87;40.59;100390.53;4440074;32;20403;-73
2021/07/24 05:51:20;;;;;;;8.93;4.12;;;;;;;24.93;40.56;100396.97;4440288;32;20033;-73
2021/07/24 05:53:45;;;;;;;7.40;4.47;;;;;;;24.80;40.96;100393.25;4436773;32;20598;-73
2021/07/24 05:56:12;;;;;;;8.75;6.20;;;;;;;24.79;40.98;100383.84;4439263;32;20071;-73
2021/07/24 05:58:37;;;;;;;8.98;6.68;;;;;;;24.85;40.85;100390.28;4442650;32;20089;-75
2021/07/24 06:01:11;;;;;;;11.32;7.75;;;;;;;24.54;41.49;100388.09;4435944;32;20076;-75
2021/07/24 06:03:38;;;;;;;15.48;10.20;;;;;;;24.92;40.51;100391.78;4421964;32;20109;-74
2021/07/24 06:06:04;;;;;;;14.75;9.98;;;;;;;24.86;40.72;100383.22;4421169;32;20448;-74
2021/07/24 06:08:31;;;;;;;12.25;9.80;;;;;;;24.84;40.97;100385.87;4422006;32;20124;-74
2021/07/24 06:10:59;;;;;;;15.20;9.93;;;;;;;24.78;41.10;100390.94;4424862;32;20582;-75
2021/07/24 06:13:25;;;;;;;13.27;10.18;;;;;;;25.04;40.68;100390.28;4424032;32;20026;-75
2021/07/24 06:15:51;;;;;;;15.73;10.25;;;;;;;25.02;40.54;100402.34;4413475;32;20070;-75
2021/07/24 06:18:17;;;;;;;13.82;9.93;;;;;;;24.77;40.79;100408.75;4412719;32;20644;-75
2021/07/24 06:20:42;;;;;;;13.15;10.27;;;;;;;24.88;40.51;100403.59;4413993;32;20030;-75
2021/07/24 06:23:08;;;;;;;12.25;9.60;;;;;;;24.92;40.32;100423.44;4412297;32;20101;-74
2021/07/24 06:25:34;;;;;;;13.45;9.43;;;;;;;24.83;40.47;100420.97;4413905;32;20073;-74
2021/07/24 06:28:00;;;;;;;14.00;9.57;;;;;;;24.85;40.22;100430.59;4413968;32;20444;-74
2021/07/24 06:30:27;;;;;;;13.25;8.95;;;;;;;24.89;40.04;100436.84;4411911;32;20093;-74
2021/07/24 06:32:53;;;;;;;17.80;10.38;;;;;;;24.86;40.03;100432.16;4412428;32;20049;-75
2021/07/24 06:35:18;;;;;;;15.45;8.35;;;;;;;24.73;40.39;100420.56;4412418;32;20563;-74
2021/07/24 06:37:44;;;;;;;15.43;8.25;;;;;;;24.60;40.62;100429.09;4412872;32;20069;-74
2021/07/24 06:40:11;;;;;;;12.90;8.40;;;;;;;24.76;40.38;100433.84;4412901;32;20399;-74
2021/07/24 06:42:37;;;;;;;11.20;8.32;;;;;;;24.72;40.63;100432.63;4412486;32;20112;-74
2021/07/24 06:45:05;;;;;;;11.55;7.75;;;;;;;24.52;40.74;100436.00;4411899;32;20100;-74
2021/07/24 06:47:30;;;;;;;12.18;8.07;;;;;;;24.70;40.60;100435.28;4415213;32;20042;-74
2021/07/24 06:49:56;;;;;;;12.18;7.85;;;;;;;24.60;40.73;100431.16;4410902;32;20084;-74
2021/07/24 06:52:22;;;;;;;9.90;7.65;;;;;;;24.66;40.57;100423.28;4413759;32;20490;-74
2021/07/24 06:54:48;;;;;;;8.38;6.65;;;;;;;24.78;40.42;100413.94;4410657;32;20026;-75
2021/07/24 06:57:14;;;;;;;9.23;5.85;;;;;;;24.99;39.82;100412.06;4414202;32;20057;-74
2021/07/24 06:59:39;;;;;;;12.05;7.05;;;;;;;25.11;39.63;100412.69;4409654;32;20448;-74
2021/07/24 07:02:05;;;;;;;8.70;6.43;;;;;;;25.27;39.38;100420.25;4413533;32;20533;-74
2021/07/24 07:04:32;;;;;;;9.40;6.37;;;;;;;25.41;39.19;100415.38;4410049;32;20089;-74
2021/07/24 07:06:58;;;;;;;11.43;6.50;;;;;;;25.37;39.14;100415.66;4412439;32;20078;-74
2021/07/24 07:09:24;;;;;;;8.80;6.05;;;;;;;25.45;39.01;100412.94;4412030;32;20100;-75
2021/07/24 07:11:49;;;;;;;13.82;5.82;;;;;;;25.28;39.04;100424.72;4411534;32;20084;-75
2021/07/24 07:14:15;;;;;;;10.80;6.37;;;;;;;25.27;38.90;100423.16;4411799;32;20027;-75
2021/07/24 07:16:40;;;;;;;8.38;5.78;;;;;;;25.32;39.02;100420.19;4413982;32;20068;-73
2021/07/24 07:19:06;;;;;;;9.15;5.47;;;;;;;25.37;38.88;100423.56;4409650;32;20342;-73
2021/07/24 07:21:33;;;;;;;10.45;5.80;;;;;;;25.46;38.63;100420.25;4411457;32;20411;-73
2021/07/24 07:23:59;;;;;;;9.00;5.85;;;;;;;25.63;38.48;100415.75;4410197;32;20095;-73
2021/07/24 07:26:27;;;;;;;11.35;6.50;;;;;;;25.63;38.45;100426.50;4413097;32;20038;-73
2021/07/24 07:28:54;;;;;;;10.70;5.85;;;;;;;25.79;38.40;100416.78;4411446;32;20038;-74
2021/07/24 07:31:20;;;;;;;8.00;5.45;;;;;;;25.58;38.67;100418.75;4413108;32;20064;-73
2021/07/24 07:33:47;;;;;;;8.48;5.43;;;;;;;25.53;38.87;100416.72;4413460;32;20037;-73
2021/07/24 07:36:13;;;;;;;10.70;5.20;;;;;;;25.77;38.37;100414.44;4412725;32;20112;-73
2021/07/24 07:38:39;;;;;;;8.10;4.45;;;;;;;25.67;38.60;100419.09;4408732;32;20069;-73
2021/07/24 07:41:05;;;;;;;6.80;4.22;;;;;;;25.71;38.59;100421.66;4412597;32;20034;-73
2021/07/24 07:43:30;;;;;;;7.30;3.65;;;;;;;25.65;39.00;100426.72;4412353;32;20074;-73
2021/07/24 07:45:56;;;;;;;7.57;3.50;;;;;;;25.53;39.57;100420.41;4411897;32;20461;-73
2021/07/24 07:48:23;;;;;;;10.52;3.90;;;;;;;25.32;39.94;100416.56;4410636;32;20030;-73
2021/07/24 07:50:49;;;;;;;9.15;3.85;;;;;;;25.79;39.20;100411.00;4411791;32;20494;-73
2021/07/24 07:53:14;;;;;;;9.52;3.58;;;;;;;25.95;39.04;100422.22;4410790;32;20022;-73
2021/07/24 07:55:41;;;;;;;4.85;3.05;;;;;;;25.96;38.65;100412.25;4412583;32;20083;-74
2021/07/24 07:58:14;;;;;;;8.60;3.03;;;;;;;25.97;38.83;100396.50;4412899;32;20039;-73
2021/07/24 08:00:40;;;;;;;5.87;2.85;;;;;;;26.35;38.23;100399.97;4410746;32;20025;-73
2021/07/24 08:03:06;;;;;;;8.40;3.05;;;;;;;25.86;38.89;100388.06;4410793;32;20407;-73
2021/07/24 08:05:33;;;;;;;7.07;3.05;;;;;;;25.89;39.03;100395.59;4409598;32;20052;-73
2021/07/24 08:07:59;;;;;;;5.30;3.25;;;;;;;26.09;38.48;100395.00;4408773;32;20101;-73
2021/07/24 08:10:25;;;;;;;5.40;3.22;;;;;;;26.17;38.56;100397.97;4409474;32;20070;-74
2021/07/24 08:12:52;;;;;;;5.95;3.00;;;;;;;26.28;38.40;100404.28;4410457;32;20066;-74
2021/07/24 08:15:18;;;;;;;10.60;3.00;;;;;;;26.12;38.65;100407.50;4409628;32;20120;-74
2021/07/24 08:17:44;;;;;;;8.32;3.42;;;;;;;26.00;38.91;100401.19;4412857;32;20022;-75
2021/07/24 08:20:11;;;;;;;9.55;3.85;;;;;;;26.19;38.61;100396.09;4410637;32;20417;-75
2021/07/24 08:22:37;;;;;;;8.13;3.55;;;;;;;26.22;38.52;100389.22;4413501;32;20417;-74
2021/07/24 08:25:04;;;;;;;4.47;3.05;;;;;;;26.33;38.51;100391.09;4411071;32;20110;-73
2021/07/24 08:27:31;;;;;;;9.27;3.22;;;;;;;26.46;38.32;100377.41;4412607;32;20033;-75
2021/07/24 08:29:57;;;;;;;8.23;3.33;;;;;;;26.51;38.25;100382.28;4407654;32;20033;-74
2021/07/24 08:32:23;;;;;;;6.12;3.00;;;;;;;26.48;38.16;100389.16;4408732;32;20070;-74
2021/07/24 08:34:50;;;;;;;9.95;3.40;;;;;;;26.58;37.90;100380.81;4409864;32;20462;-74
2021/07/24 08:37:17;;;;;;;5.82;3.12;;;;;;;26.71;37.80;100380.81;4410743;32;20030;-74
2021/07/24 08:39:43;;;;;;;6.30;3.60;;;;;;;26.78;37.59;100392.47;4408767;32;20504;-74
2021/07/24 08:42:09;;;;;;;10.05;3.72;;;;;;;26.63;37.67;100389.37;4408777;32;20402;-74
2021/07/24 08:44:36;;;;;;;5.57;2.92;;;;;;;26.65;37.82;100388.81;4411147;32;20068;-73
2021/07/24 08:47:04;;;;;;;9.95;3.33;;;;;;;26.57;38.15;100385.06;4413469;32;20057;-73
2021/07/24 08:49:30;;;;;;;10.23;3.12;;;;;;;26.75;37.56;100390.69;4409471;32;20037;-73
2021/07/24 08:51:58;;;;;;;8.75;3.35;;;;;;;26.89;37.34;100389.31;4408630;32;20062;-74
2021/07/24 08:54:24;;;;;;;8.60;3.22;;;;;;;26.91;37.51;100385.87;4409102;32;20093;-73
2021/07/24 08:56:50;;;;;;;8.27;4.10;;;;;;;26.88;37.51;100372.56;4409626;32;20368;-73
2021/07/24 08:59:18;;;;;;;6.25;3.58;;;;;;;26.88;37.54;100372.56;4412482;32;20400;-73
2021/07/24 09:01:52;;;;;;;9.52;4.10;;;;;;;26.95;37.51;100366.09;4411716;32;20136;-73
2021/07/24 09:04:20;;;;;;;8.90;3.58;;;;;;;27.33;36.96;100375.91;4408923;32;20088;-73
2021/07/24 09:06:49;;;;;;;6.45;4.10;;;;;;;26.93;37.63;100372.41;4411613;32;20131;-74
2021/07/24 09:09:17;;;;;;;18.98;4.05;;;;;;;26.97;37.30;100369.19;4412659;32;20031;-74
2021/07/24 09:11:43;;;;;;;7.45;3.95;;;;;;;27.12;37.01;100375.13;4408005;32;20073;-73
2021/07/24 09:14:09;;;;;;;8.40;4.00;;;;;;;26.79;37.74;100378.81;4413002;32;20063;-74
2021/07/24 09:16:37;;;;;;;5.12;3.50;;;;;;;27.10;37.43;100384.34;4410954;32;20087;-74
2021/07/24 09:19:04;;;;;;;12.98;4.00;;;;;;;27.30;36.96;100379.19;4410990;32;20054;-73
2021/07/24 09:21:30;;;;;;;7.57;3.92;;;;;;;27.32;36.66;100383.03;4411426;32;20099;-74
2021/07/24 09:26:54;;;;;;;6.72;4.18;;;;;;;27.57;36.41;100390.00;3985090;32;15023247;-75
2021/07/24 09:29:21;;;;;;;10.18;4.47;;;;;;;27.57;36.41;100390.00;4440418;32;20096;-74
2021/07/24 09:31:48;;;;;;;7.40;3.72;;;;;;;27.20;36.86;100391.19;4441791;32;20219;-74
2021/07/24 09:34:15;;;;;;;8.13;4.15;;;;;;;27.06;37.40;100377.38;4439687;32;20113;-74
2021/07/24 09:36:45;;;;;;;10.63;3.50;;;;;;;27.21;37.50;100377.50;4435907;32;20038;-75
2021/07/24 09:39:13;;;;;;;6.12;3.55;;;;;;;27.40;36.95;100386.78;4438442;32;20837;-74
2021/07/24 09:41:41;;;;;;;10.93;3.10;;;;;;;27.47;36.60;100380.28;4439829;32;20107;-75
2021/07/24 09:44:07;;;;;;;8.40;3.12;;;;;;;27.56;36.30;100376.91;4440270;32;20067;-75
2021/07/24 09:46:33;;;;;;;7.82;3.42;;;;;;;27.71;36.10;100373.34;4442966;32;20025;-74
2021/07/24 09:49:11;;;;;;;6.37;3.58;;;;;;;27.64;36.12;100374.06;4438369;32;20142;-75
2021/07/24 09:51:38;;;;;;;6.53;3.30;;;;;;;28.25;34.96;100371.03;4435715;32;20042;-74
2021/07/24 09:54:05;;;;;;;5.85;3.33;;;;;;;28.19;35.31;100364.62;4437713;32;20056;-73
2021/07/24 09:56:40;;;;;;;4.87;3.05;;;;;;;28.18;35.13;100354.41;4437548;32;20126;-74
2021/07/24 09:59:18;;;;;;;7.97;3.80;;;;;;;28.38;34.66;100352.78;4435729;32;20112;-74
2021/07/24 10:01:44;;;;;;;5.70;3.42;;;;;;;28.69;34.13;100342.88;4427849;32;20335;-74
2021/07/24 10:04:11;;;;;;;7.07;3.47;;;;;;;28.32;34.37;100329.00;4431777;32;20073;-74
2021/07/24 10:06:42;;;;;;;6.07;3.28;;;;;;;28.73;33.55;100328.78;4429415;32;20061;-74
2021/07/24 10:09:09;;;;;;;6.60;3.70;;;;;;;29.52;32.48;100322.72;4429431;32;20123;-74
2021/07/24 10:11:34;;;;;;;10.18;3.72;;;;;;;29.30;32.67;100320.59;4428604;32;20026;-74
2021/07/24 10:14:02;;;;;;;11.63;4.05;;;;;;;29.58;32.27;100320.41;4430591;32;20219;-74
2021/07/24 10:16:28;;;;;;;11.77;3.78;;;;;;;29.40;32.56;100312.88;4428874;32;20478;-74
2021/07/24 10:18:55;;;;;;;6.65;3.30;;;;;;;29.42;32.16;100310.19;4429998;32;20100;-73
2021/07/24 10:21:21;;;;;;;9.52;3.33;;;;;;;29.17;32.75;100312.09;4430885;32;20489;-73
2021/07/24 10:23:47;;;;;;;7.10;3.83;;;;;;;29.22;32.68;100314.03;4427359;32;20202;-73
2021/07/24 10:26:20;;;;;;;7.80;3.97;;;;;;;29.27;32.44;100307.28;4427120;32;20057;-73
2021/07/24 10:29:05;;;;;;;8.65;4.25;;;;;;;29.50;32.35;100299.31;4430398;32;20076;-73
2021/07/24 10:31:40;;;;;;;7.90;4.00;;;;;;;29.51;32.33;100300.91;4425195;32;20359;-73
2021/07/24 10:34:08;;;;;;;7.32;4.28;;;;;;;29.38;32.33;100301.06;4427270;32;20065;-73
2021/07/24 10:36:38;;;;;;;9.48;4.45;;;;;;;29.24;32.41;100300.53;4427417;32;20100;-73
2021/07/24 10:39:21;;;;;;;7.07;5.22;;;;;;;29.57;32.09;100304.38;4416731;32;20045;-74
2021/07/24 10:52:11;;;;;;;13.60;4.87;;;;;;;31.38;29.35;100275.28;4005670;31;15015069;-74
2021/07/24 11:02:54;;;;;;;11.80;5.40;;;;;;;31.18;29.29;100256.81;3985845;32;15041726;-74
2021/07/24 11:05:25;;;;;;;7.60;5.32;;;;;;;31.18;29.29;100256.81;4440177;32;20099;-74
2021/07/24 11:07:51;;;;;;;8.05;4.75;;;;;;;30.87;29.58;100243.09;4439258;32;20042;-74
2021/07/24 11:10:17;;;;;;;9.65;4.75;;;;;;;30.46;30.06;100250.31;4439279;32;20476;-74
2021/07/24 11:12:43;;;;;;;12.37;4.97;;;;;;;30.70;29.66;100253.28;4440196;32;20405;-74
2021/07/24 11:15:10;;;;;;;8.45;5.20;;;;;;;30.66;29.87;100252.12;4438747;32;20107;-74
2021/07/24 11:17:36;;;;;;;12.07;5.47;;;;;;;30.67;29.91;100247.88;4439512;32;20092;-74
2021/07/24 11:22:59;;;;;;;8.05;5.22;;;;;;;30.42;29.79;100244.16;3985648;32;15022072;-73
2021/07/24 11:28:00;;;;;;;8.13;6.87;;;;;;;29.54;31.35;100247.53;3983542;32;15023911;-75
2021/07/24 11:30:26;;;;;;;10.40;7.20;;;;;;;29.54;31.35;100247.53;4440525;32;20156;-75
2021/07/24 11:32:56;;;;;;;10.52;6.70;;;;;;;29.72;30.94;100240.53;4439698;32;20049;-75
2021/07/24 11:35:27;;;;;;;11.25;6.43;;;;;;;29.74;30.98;100255.25;4436878;32;20025;-73
2021/07/24 11:37:53;;;;;;;9.02;5.37;;;;;;;29.70;30.77;100249.06;4439463;32;20033;-73
2021/07/24 11:43:07;;;;;;;11.75;5.82;;;;;;;31.17;29.03;100243.63;3989339;32;15022991;-75
2021/07/24 11:45:34;;;;;;;11.85;6.00;;;;;;;31.17;29.03;100243.63;4439676;32;20067;-73
2021/07/24 11:50:45;;;;;;;8.80;6.30;;;;;;;32.86;27.01;100223.78;3998908;31;15017650;-75
2021/07/24 11:53:11;;;;;;;13.35;7.28;;;;;;;32.86;27.01;100223.78;4458067;32;20199;-74
2021/07/24 11:55:40;;;;;;;11.75;6.78;;;;;;;32.95;26.60;100225.19;4455141;32;20084;-75
2021/07/24 11:58:09;;;;;;;12.40;6.50;;;;;;;32.93;26.65;100231.62;4443239;32;20115;-74